sensor_id;sensor_type;location;lat;lon;timestamp;P1;durP1;ratioP1;P2;durP2;ratioP2
5912;SDS011;2982;42.684;23.356;2023-06-14T00:01:41;7.15;;;6.53;;
5912;SDS011;2982;42.684;23.356;2023-06-14T00:04:06;8.75;;;7.00;;
5912;SDS011;2982;42.684;23.356;2023-06-14T00:06:32;8.35;;;6.47;;
5912;SDS011;2982;42.684;23.356;2023-06-14T00:08:57;7.55;;;6.88;;
5912;SDS011;2982;42.684;23.356;2023-06-14T00:11:22;10.23;;;6.50;;
5912;SDS011;2982;42.684;23.356;2023-06-14T00:13:48;7.43;;;6.90;;
5912;SDS011;2982;42.684;23.356;2023-06-14T00:16:13;10.38;;;7.07;;
5912;SDS011;2982;42.684;23.356;2023-06-14T00:18:38;12.43;;;7.93;;
5912;SDS011;2982;42.684;23.356;2023-06-14T00:21:04;7.97;;;7.15;;
5912;SDS011;2982;42.684;23.356;2023-06-14T00:23:30;6.97;;;6.38;;
5912;SDS011;2982;42.684;23.356;2023-06-14T00:25:55;7.18;;;6.57;;
5912;SDS011;2982;42.684;23.356;2023-06-14T00:28:21;8.43;;;7.15;;
5912;SDS011;2982;42.684;23.356;2023-06-14T00:30:46;7.93;;;6.95;;
5912;SDS011;2982;42.684;23.356;2023-06-14T00:33:11;8.65;;;6.55;;
5912;SDS011;2982;42.684;23.356;2023-06-14T00:35:37;8.63;;;6.25;;
5912;SDS011;2982;42.684;23.356;2023-06-14T00:38:02;6.63;;;6.22;;
5912;SDS011;2982;42.684;23.356;2023-06-14T00:40:27;6.47;;;6.00;;
5912;SDS011;2982;42.684;23.356;2023-06-14T00:42:53;10.07;;;6.75;;
5912;SDS011;2982;42.684;23.356;2023-06-14T00:45:18;7.72;;;6.30;;
5912;SDS011;2982;42.684;23.356;2023-06-14T00:47:43;7.97;;;7.38;;
5912;SDS011;2982;42.684;23.356;2023-06-14T00:50:11;6.80;;;6.30;;
5912;SDS011;2982;42.684;23.356;2023-06-14T00:52:37;6.95;;;6.25;;
5912;SDS011;2982;42.684;23.356;2023-06-14T00:55:02;7.15;;;6.30;;
5912;SDS011;2982;42.684;23.356;2023-06-14T00:57:28;6.38;;;5.88;;
5912;SDS011;2982;42.684;23.356;2023-06-14T00:59:54;7.32;;;6.70;;
5912;SDS011;2982;42.684;23.356;2023-06-14T01:02:19;6.18;;;5.35;;
5912;SDS011;2982;42.684;23.356;2023-06-14T01:04:45;6.30;;;5.90;;
5912;SDS011;2982;42.684;23.356;2023-06-14T01:10:15;7.32;;;5.88;;
5912;SDS011;2982;42.684;23.356;2023-06-14T01:15:35;6.13;;;5.65;;
5912;SDS011;2982;42.684;23.356;2023-06-14T01:18:02;6.28;;;5.82;;
5912;SDS011;2982;42.684;23.356;2023-06-14T01:20:28;6.60;;;5.97;;
5912;SDS011;2982;42.684;23.356;2023-06-14T01:22:55;7.88;;;6.03;;
5912;SDS011;2982;42.684;23.356;2023-06-14T01:25:20;6.72;;;6.22;;
5912;SDS011;2982;42.684;23.356;2023-06-14T01:27:47;6.72;;;6.15;;
5912;SDS011;2982;42.684;23.356;2023-06-14T01:30:14;6.32;;;5.88;;
5912;SDS011;2982;42.684;23.356;2023-06-14T01:32:40;6.45;;;5.90;;
5912;SDS011;2982;42.684;23.356;2023-06-14T01:35:05;6.60;;;6.10;;
5912;SDS011;2982;42.684;23.356;2023-06-14T01:37:31;6.88;;;5.80;;
5912;SDS011;2982;42.684;23.356;2023-06-14T01:39:57;7.80;;;6.05;;
5912;SDS011;2982;42.684;23.356;2023-06-14T01:42:23;6.15;;;5.65;;
5912;SDS011;2982;42.684;23.356;2023-06-14T01:44:48;5.72;;;5.35;;
5912;SDS011;2982;42.684;23.356;2023-06-14T01:47:15;7.32;;;4.93;;
5912;SDS011;2982;42.684;23.356;2023-06-14T01:49:41;5.47;;;5.18;;
5912;SDS011;2982;42.684;23.356;2023-06-14T01:52:06;6.05;;;5.38;;
5912;SDS011;2982;42.684;23.356;2023-06-14T01:54:31;5.93;;;5.47;;
5912;SDS011;2982;42.684;23.356;2023-06-14T01:56:57;5.97;;;5.63;;
5912;SDS011;2982;42.684;23.356;2023-06-14T01:59:22;5.63;;;5.32;;
5912;SDS011;2982;42.684;23.356;2023-06-14T02:01:47;5.90;;;5.53;;
5912;SDS011;2982;42.684;23.356;2023-06-14T02:04:13;8.95;;;5.50;;
5912;SDS011;2982;42.684;23.356;2023-06-14T02:06:38;6.30;;;5.53;;
5912;SDS011;2982;42.684;23.356;2023-06-14T02:09:03;6.22;;;5.72;;
5912;SDS011;2982;42.684;23.356;2023-06-14T02:11:28;6.40;;;5.90;;
5912;SDS011;2982;42.684;23.356;2023-06-14T02:13:54;5.95;;;5.55;;
5912;SDS011;2982;42.684;23.356;2023-06-14T02:16:20;6.57;;;6.07;;
5912;SDS011;2982;42.684;23.356;2023-06-14T02:18:45;7.93;;;6.32;;
5912;SDS011;2982;42.684;23.356;2023-06-14T02:21:10;8.10;;;6.13;;
5912;SDS011;2982;42.684;23.356;2023-06-14T02:23:36;7.30;;;6.15;;
5912;SDS011;2982;42.684;23.356;2023-06-14T02:26:01;6.75;;;6.13;;
5912;SDS011;2982;42.684;23.356;2023-06-14T02:28:26;6.57;;;6.18;;
5912;SDS011;2982;42.684;23.356;2023-06-14T02:30:51;6.35;;;5.78;;
5912;SDS011;2982;42.684;23.356;2023-06-14T02:33:17;6.43;;;5.72;;
5912;SDS011;2982;42.684;23.356;2023-06-14T02:35:42;7.45;;;6.72;;
5912;SDS011;2982;42.684;23.356;2023-06-14T02:38:07;7.13;;;6.68;;
5912;SDS011;2982;42.684;23.356;2023-06-14T02:40:33;6.90;;;6.32;;
5912;SDS011;2982;42.684;23.356;2023-06-14T02:42:58;8.30;;;7.25;;
5912;SDS011;2982;42.684;23.356;2023-06-14T02:45:23;7.63;;;6.68;;
5912;SDS011;2982;42.684;23.356;2023-06-14T02:47:48;7.60;;;6.90;;
5912;SDS011;2982;42.684;23.356;2023-06-14T02:50:14;7.63;;;7.00;;
5912;SDS011;2982;42.684;23.356;2023-06-14T02:52:39;7.18;;;6.68;;
5912;SDS011;2982;42.684;23.356;2023-06-14T02:55:05;8.98;;;6.97;;
5912;SDS011;2982;42.684;23.356;2023-06-14T02:57:30;7.53;;;7.00;;
5912;SDS011;2982;42.684;23.356;2023-06-14T02:59:55;6.82;;;6.32;;
5912;SDS011;2982;42.684;23.356;2023-06-14T03:02:21;7.18;;;6.72;;
5912;SDS011;2982;42.684;23.356;2023-06-14T03:04:46;9.35;;;6.55;;
5912;SDS011;2982;42.684;23.356;2023-06-14T03:07:12;16.17;;;7.63;;
5912;SDS011;2982;42.684;23.356;2023-06-14T03:09:37;7.75;;;6.72;;
5912;SDS011;2982;42.684;23.356;2023-06-14T03:12:04;8.13;;;7.05;;
5912;SDS011;2982;42.684;23.356;2023-06-14T03:14:30;7.38;;;6.85;;
5912;SDS011;2982;42.684;23.356;2023-06-14T03:16:57;6.10;;;5.55;;
5912;SDS011;2982;42.684;23.356;2023-06-14T03:19:23;6.80;;;6.25;;
5912;SDS011;2982;42.684;23.356;2023-06-14T03:21:48;7.15;;;6.55;;
5912;SDS011;2982;42.684;23.356;2023-06-14T03:24:14;10.55;;;6.97;;
5912;SDS011;2982;42.684;23.356;2023-06-14T03:26:39;7.85;;;7.15;;
5912;SDS011;2982;42.684;23.356;2023-06-14T03:29:04;7.80;;;7.10;;
5912;SDS011;2982;42.684;23.356;2023-06-14T03:31:30;16.05;;;7.05;;
5912;SDS011;2982;42.684;23.356;2023-06-14T03:33:55;8.15;;;7.53;;
5912;SDS011;2982;42.684;23.356;2023-06-14T03:36:20;8.82;;;7.85;;
5912;SDS011;2982;42.684;23.356;2023-06-14T03:38:45;8.15;;;7.30;;
5912;SDS011;2982;42.684;23.356;2023-06-14T03:41:11;10.35;;;6.82;;
5912;SDS011;2982;42.684;23.356;2023-06-14T03:43:36;7.80;;;7.20;;
5912;SDS011;2982;42.684;23.356;2023-06-14T03:46:01;12.75;;;7.40;;
5912;SDS011;2982;42.684;23.356;2023-06-14T03:48:27;7.22;;;6.55;;
5912;SDS011;2982;42.684;23.356;2023-06-14T03:50:52;11.60;;;7.50;;
5912;SDS011;2982;42.684;23.356;2023-06-14T03:53:17;8.45;;;7.63;;
5912;SDS011;2982;42.684;23.356;2023-06-14T03:55:42;8.43;;;7.32;;
5912;SDS011;2982;42.684;23.356;2023-06-14T03:58:08;7.22;;;6.63;;
5912;SDS011;2982;42.684;23.356;2023-06-14T04:00:33;7.65;;;7.05;;
5912;SDS011;2982;42.684;23.356;2023-06-14T04:02:58;8.32;;;7.72;;
5912;SDS011;2982;42.684;23.356;2023-06-14T04:05:24;8.30;;;7.57;;
5912;SDS011;2982;42.684;23.356;2023-06-14T04:07:49;9.63;;;8.05;;
5912;SDS011;2982;42.684;23.356;2023-06-14T04:10:15;8.77;;;7.85;;
5912;SDS011;2982;42.684;23.356;2023-06-14T04:12:41;7.90;;;7.07;;
5912;SDS011;2982;42.684;23.356;2023-06-14T04:15:07;8.50;;;6.88;;
5912;SDS011;2982;42.684;23.356;2023-06-14T04:17:33;9.60;;;7.20;;
5912;SDS011;2982;42.684;23.356;2023-06-14T04:19:59;7.82;;;7.15;;
5912;SDS011;2982;42.684;23.356;2023-06-14T04:22:24;8.43;;;7.82;;
5912;SDS011;2982;42.684;23.356;2023-06-14T04:24:50;7.88;;;7.25;;
5912;SDS011;2982;42.684;23.356;2023-06-14T04:27:15;7.82;;;7.00;;
5912;SDS011;2982;42.684;23.356;2023-06-14T04:29:40;7.47;;;7.00;;
5912;SDS011;2982;42.684;23.356;2023-06-14T04:32:06;7.05;;;6.40;;
5912;SDS011;2982;42.684;23.356;2023-06-14T04:34:31;6.30;;;5.90;;
5912;SDS011;2982;42.684;23.356;2023-06-14T04:36:57;5.80;;;5.43;;
5912;SDS011;2982;42.684;23.356;2023-06-14T04:39:22;7.00;;;5.00;;
5912;SDS011;2982;42.684;23.356;2023-06-14T04:41:48;6.18;;;4.88;;
5912;SDS011;2982;42.684;23.356;2023-06-14T04:44:14;6.68;;;5.90;;
5912;SDS011;2982;42.684;23.356;2023-06-14T04:46:40;6.30;;;5.75;;
5912;SDS011;2982;42.684;23.356;2023-06-14T04:49:05;6.35;;;5.75;;
5912;SDS011;2982;42.684;23.356;2023-06-14T04:51:30;8.10;;;7.57;;
5912;SDS011;2982;42.684;23.356;2023-06-14T04:53:56;8.00;;;6.78;;
5912;SDS011;2982;42.684;23.356;2023-06-14T04:56:21;8.02;;;7.32;;
5912;SDS011;2982;42.684;23.356;2023-06-14T04:58:46;7.60;;;7.10;;
5912;SDS011;2982;42.684;23.356;2023-06-14T05:01:12;8.40;;;6.88;;
5912;SDS011;2982;42.684;23.356;2023-06-14T05:03:37;7.18;;;6.78;;
5912;SDS011;2982;42.684;23.356;2023-06-14T05:06:02;8.32;;;7.00;;
5912;SDS011;2982;42.684;23.356;2023-06-14T05:08:27;8.50;;;7.80;;
5912;SDS011;2982;42.684;23.356;2023-06-14T05:10:53;7.90;;;7.18;;
5912;SDS011;2982;42.684;23.356;2023-06-14T05:13:18;8.73;;;7.93;;
5912;SDS011;2982;42.684;23.356;2023-06-14T05:15:44;23.25;;;19.00;;
5912;SDS011;2982;42.684;23.356;2023-06-14T05:18:09;9.15;;;8.07;;
5912;SDS011;2982;42.684;23.356;2023-06-14T05:20:35;9.55;;;8.82;;
5912;SDS011;2982;42.684;23.356;2023-06-14T05:23:00;10.63;;;9.82;;
5912;SDS011;2982;42.684;23.356;2023-06-14T05:25:25;10.00;;;9.18;;
5912;SDS011;2982;42.684;23.356;2023-06-14T05:27:51;9.70;;;8.85;;
5912;SDS011;2982;42.684;23.356;2023-06-14T05:30:16;10.70;;;8.60;;
5912;SDS011;2982;42.684;23.356;2023-06-14T05:32:41;9.23;;;8.05;;
5912;SDS011;2982;42.684;23.356;2023-06-14T05:35:07;10.27;;;8.70;;
5912;SDS011;2982;42.684;23.356;2023-06-14T05:37:33;9.88;;;9.15;;
5912;SDS011;2982;42.684;23.356;2023-06-14T05:39:58;10.13;;;9.32;;
5912;SDS011;2982;42.684;23.356;2023-06-14T05:42:24;12.32;;;9.95;;
5912;SDS011;2982;42.684;23.356;2023-06-14T05:44:49;12.45;;;9.38;;
5912;SDS011;2982;42.684;23.356;2023-06-14T05:47:14;10.77;;;9.88;;
5912;SDS011;2982;42.684;23.356;2023-06-14T05:49:39;10.93;;;9.85;;
5912;SDS011;2982;42.684;23.356;2023-06-14T05:52:05;13.20;;;10.00;;
5912;SDS011;2982;42.684;23.356;2023-06-14T05:54:31;11.32;;;10.25;;
5912;SDS011;2982;42.684;23.356;2023-06-14T05:56:56;11.52;;;10.40;;
5912;SDS011;2982;42.684;23.356;2023-06-14T05:59:21;11.90;;;10.68;;
5912;SDS011;2982;42.684;23.356;2023-06-14T06:01:46;12.65;;;11.25;;
5912;SDS011;2982;42.684;23.356;2023-06-14T06:04:12;12.32;;;10.85;;
5912;SDS011;2982;42.684;23.356;2023-06-14T06:06:37;12.48;;;11.25;;
5912;SDS011;2982;42.684;23.356;2023-06-14T06:09:02;11.20;;;10.13;;
5912;SDS011;2982;42.684;23.356;2023-06-14T06:11:28;13.90;;;12.48;;
5912;SDS011;2982;42.684;23.356;2023-06-14T06:13:53;13.32;;;12.02;;
5912;SDS011;2982;42.684;23.356;2023-06-14T06:16:18;15.93;;;13.18;;
5912;SDS011;2982;42.684;23.356;2023-06-14T06:18:44;15.60;;;13.70;;
5912;SDS011;2982;42.684;23.356;2023-06-14T06:21:09;15.32;;;13.10;;
5912;SDS011;2982;42.684;23.356;2023-06-14T06:23:34;17.60;;;13.90;;
5912;SDS011;2982;42.684;23.356;2023-06-14T06:26:00;14.13;;;12.93;;
5912;SDS011;2982;42.684;23.356;2023-06-14T06:28:25;14.68;;;12.73;;
5912;SDS011;2982;42.684;23.356;2023-06-14T06:30:50;12.23;;;11.23;;
5912;SDS011;2982;42.684;23.356;2023-06-14T06:33:15;12.13;;;11.02;;
5912;SDS011;2982;42.684;23.356;2023-06-14T06:35:41;13.18;;;11.32;;
5912;SDS011;2982;42.684;23.356;2023-06-14T06:38:06;13.27;;;12.07;;
5912;SDS011;2982;42.684;23.356;2023-06-14T06:40:31;13.63;;;11.75;;
5912;SDS011;2982;42.684;23.356;2023-06-14T06:42:57;16.83;;;12.07;;
5912;SDS011;2982;42.684;23.356;2023-06-14T06:45:22;12.32;;;11.02;;
5912;SDS011;2982;42.684;23.356;2023-06-14T06:47:47;14.63;;;12.35;;
5912;SDS011;2982;42.684;23.356;2023-06-14T06:50:12;12.75;;;11.60;;
5912;SDS011;2982;42.684;23.356;2023-06-14T06:52:38;16.85;;;13.40;;
5912;SDS011;2982;42.684;23.356;2023-06-14T06:55:03;13.90;;;12.70;;
5912;SDS011;2982;42.684;23.356;2023-06-14T06:57:29;13.98;;;12.40;;
5912;SDS011;2982;42.684;23.356;2023-06-14T06:59:54;12.18;;;11.27;;
5912;SDS011;2982;42.684;23.356;2023-06-14T07:02:20;18.02;;;12.57;;
5912;SDS011;2982;42.684;23.356;2023-06-14T07:04:45;13.23;;;11.90;;
5912;SDS011;2982;42.684;23.356;2023-06-14T07:07:11;14.30;;;12.85;;
5912;SDS011;2982;42.684;23.356;2023-06-14T07:09:36;15.68;;;12.75;;
5912;SDS011;2982;42.684;23.356;2023-06-14T07:12:04;14.63;;;13.15;;
5912;SDS011;2982;42.684;23.356;2023-06-14T07:14:30;13.57;;;12.27;;
5912;SDS011;2982;42.684;23.356;2023-06-14T07:16:55;13.90;;;12.60;;
5912;SDS011;2982;42.684;23.356;2023-06-14T07:19:21;17.63;;;13.40;;
5912;SDS011;2982;42.684;23.356;2023-06-14T07:21:46;13.88;;;11.95;;
5912;SDS011;2982;42.684;23.356;2023-06-14T07:24:11;13.38;;;12.05;;
5912;SDS011;2982;42.684;23.356;2023-06-14T07:26:37;13.93;;;12.63;;
5912;SDS011;2982;42.684;23.356;2023-06-14T07:29:02;14.48;;;13.18;;
5912;SDS011;2982;42.684;23.356;2023-06-14T07:31:28;15.80;;;14.07;;
5912;SDS011;2982;42.684;23.356;2023-06-14T07:33:53;14.07;;;12.93;;
5912;SDS011;2982;42.684;23.356;2023-06-14T07:36:19;15.18;;;13.80;;
5912;SDS011;2982;42.684;23.356;2023-06-14T07:38:44;15.98;;;12.48;;
5912;SDS011;2982;42.684;23.356;2023-06-14T07:41:10;14.70;;;13.20;;
5912;SDS011;2982;42.684;23.356;2023-06-14T07:43:38;16.65;;;14.40;;
5912;SDS011;2982;42.684;23.356;2023-06-14T07:46:04;17.73;;;13.40;;
5912;SDS011;2982;42.684;23.356;2023-06-14T07:48:30;14.48;;;13.32;;
5912;SDS011;2982;42.684;23.356;2023-06-14T07:50:55;14.13;;;12.70;;
5912;SDS011;2982;42.684;23.356;2023-06-14T07:53:20;14.02;;;12.68;;
5912;SDS011;2982;42.684;23.356;2023-06-14T07:55:46;18.65;;;15.70;;
5912;SDS011;2982;42.684;23.356;2023-06-14T07:58:11;14.90;;;13.50;;
5912;SDS011;2982;42.684;23.356;2023-06-14T08:00:37;23.80;;;18.15;;
5912;SDS011;2982;42.684;23.356;2023-06-14T08:03:02;13.77;;;12.75;;
5912;SDS011;2982;42.684;23.356;2023-06-14T08:05:28;12.95;;;11.70;;
5912;SDS011;2982;42.684;23.356;2023-06-14T08:07:53;12.85;;;11.57;;
5912;SDS011;2982;42.684;23.356;2023-06-14T08:10:19;12.05;;;11.05;;
5912;SDS011;2982;42.684;23.356;2023-06-14T08:12:46;14.10;;;11.57;;
5912;SDS011;2982;42.684;23.356;2023-06-14T08:15:12;11.98;;;10.90;;
5912;SDS011;2982;42.684;23.356;2023-06-14T08:17:37;15.15;;;11.52;;
5912;SDS011;2982;42.684;23.356;2023-06-14T08:20:10;12.90;;;11.70;;
5912;SDS011;2982;42.684;23.356;2023-06-14T08:22:43;12.50;;;11.25;;
5912;SDS011;2982;42.684;23.356;2023-06-14T08:25:09;11.65;;;10.45;;
5912;SDS011;2982;42.684;23.356;2023-06-14T08:27:35;11.32;;;10.45;;
5912;SDS011;2982;42.684;23.356;2023-06-14T08:30:00;11.57;;;10.48;;
5912;SDS011;2982;42.684;23.356;2023-06-14T08:32:25;11.70;;;10.60;;
5912;SDS011;2982;42.684;23.356;2023-06-14T08:34:51;13.45;;;12.05;;
5912;SDS011;2982;42.684;23.356;2023-06-14T08:37:16;12.18;;;10.32;;
5912;SDS011;2982;42.684;23.356;2023-06-14T08:39:42;14.65;;;13.55;;
5912;SDS011;2982;42.684;23.356;2023-06-14T08:42:07;9.77;;;8.70;;
5912;SDS011;2982;42.684;23.356;2023-06-14T08:44:34;10.57;;;9.88;;
5912;SDS011;2982;42.684;23.356;2023-06-14T08:47:02;10.68;;;9.77;;
5912;SDS011;2982;42.684;23.356;2023-06-14T08:49:32;16.17;;;11.95;;
5912;SDS011;2982;42.684;23.356;2023-06-14T08:51:59;9.77;;;9.07;;
5912;SDS011;2982;42.684;23.356;2023-06-14T08:54:29;11.25;;;10.20;;
5912;SDS011;2982;42.684;23.356;2023-06-14T08:56:58;10.50;;;9.27;;
5912;SDS011;2982;42.684;23.356;2023-06-14T08:59:25;10.60;;;9.52;;
5912;SDS011;2982;42.684;23.356;2023-06-14T09:01:51;8.60;;;8.00;;
5912;SDS011;2982;42.684;23.356;2023-06-14T09:04:18;8.40;;;7.78;;
5912;SDS011;2982;42.684;23.356;2023-06-14T09:06:43;9.82;;;9.13;;
5912;SDS011;2982;42.684;23.356;2023-06-14T09:09:11;10.48;;;9.68;;
5912;SDS011;2982;42.684;23.356;2023-06-14T09:11:37;9.85;;;9.05;;
5912;SDS011;2982;42.684;23.356;2023-06-14T09:14:02;12.05;;;11.15;;
5912;SDS011;2982;42.684;23.356;2023-06-14T09:16:28;11.63;;;10.73;;
5912;SDS011;2982;42.684;23.356;2023-06-14T09:18:53;10.20;;;9.40;;
5912;SDS011;2982;42.684;23.356;2023-06-14T09:21:19;10.63;;;9.82;;
5912;SDS011;2982;42.684;23.356;2023-06-14T09:23:45;10.30;;;9.60;;
5912;SDS011;2982;42.684;23.356;2023-06-14T09:26:12;9.52;;;8.90;;
5912;SDS011;2982;42.684;23.356;2023-06-14T09:28:42;11.82;;;10.75;;
5912;SDS011;2982;42.684;23.356;2023-06-14T09:31:12;10.88;;;9.80;;
5912;SDS011;2982;42.684;23.356;2023-06-14T09:33:38;11.55;;;10.43;;
5912;SDS011;2982;42.684;23.356;2023-06-14T09:36:10;10.95;;;10.07;;
5912;SDS011;2982;42.684;23.356;2023-06-14T09:38:39;9.57;;;8.88;;
5912;SDS011;2982;42.684;23.356;2023-06-14T09:41:05;9.68;;;8.88;;
5912;SDS011;2982;42.684;23.356;2023-06-14T09:43:31;9.80;;;9.13;;
5912;SDS011;2982;42.684;23.356;2023-06-14T09:46:00;10.23;;;9.27;;
5912;SDS011;2982;42.684;23.356;2023-06-14T09:48:26;9.80;;;9.20;;
5912;SDS011;2982;42.684;23.356;2023-06-14T09:50:51;9.02;;;8.32;;
5912;SDS011;2982;42.684;23.356;2023-06-14T09:53:21;9.77;;;9.07;;
5912;SDS011;2982;42.684;23.356;2023-06-14T09:55:47;10.52;;;9.55;;
5912;SDS011;2982;42.684;23.356;2023-06-14T09:58:14;9.73;;;9.00;;
5912;SDS011;2982;42.684;23.356;2023-06-14T10:00:41;10.63;;;9.82;;
5912;SDS011;2982;42.684;23.356;2023-06-14T10:03:13;11.20;;;10.50;;
5912;SDS011;2982;42.684;23.356;2023-06-14T10:05:42;10.88;;;10.07;;
5912;SDS011;2982;42.684;23.356;2023-06-14T10:08:10;10.80;;;9.65;;
5912;SDS011;2982;42.684;23.356;2023-06-14T10:10:39;10.70;;;9.50;;
5912;SDS011;2982;42.684;23.356;2023-06-14T10:13:04;11.32;;;9.18;;
5912;SDS011;2982;42.684;23.356;2023-06-14T10:15:38;9.48;;;8.68;;
5912;SDS011;2982;42.684;23.356;2023-06-14T10:18:41;10.68;;;9.98;;
5912;SDS011;2982;42.684;23.356;2023-06-14T10:21:16;9.85;;;9.05;;
5912;SDS011;2982;42.684;23.356;2023-06-14T10:24:05;9.90;;;9.00;;
5912;SDS011;2982;42.684;23.356;2023-06-14T10:26:33;9.00;;;8.50;;
5912;SDS011;2982;42.684;23.356;2023-06-14T10:29:00;8.82;;;8.30;;
5912;SDS011;2982;42.684;23.356;2023-06-14T10:31:41;9.35;;;8.45;;
5912;SDS011;2982;42.684;23.356;2023-06-14T10:34:06;9.60;;;8.68;;
5912;SDS011;2982;42.684;23.356;2023-06-14T10:36:32;8.88;;;8.38;;
5912;SDS011;2982;42.684;23.356;2023-06-14T10:41:22;10.10;;;8.27;;
5912;SDS011;2982;42.684;23.356;2023-06-14T10:43:48;9.45;;;8.57;;
5912;SDS011;2982;42.684;23.356;2023-06-14T10:46:18;9.38;;;8.77;;
5912;SDS011;2982;42.684;23.356;2023-06-14T10:48:44;10.15;;;9.45;;
5912;SDS011;2982;42.684;23.356;2023-06-14T10:51:19;9.45;;;8.55;;
5912;SDS011;2982;42.684;23.356;2023-06-14T10:53:45;8.80;;;8.25;;
5912;SDS011;2982;42.684;23.356;2023-06-14T10:56:32;9.13;;;8.52;;
5912;SDS011;2982;42.684;23.356;2023-06-14T10:58:57;8.18;;;7.57;;
5912;SDS011;2982;42.684;23.356;2023-06-14T11:01:28;8.15;;;7.50;;
5912;SDS011;2982;42.684;23.356;2023-06-14T11:04:06;9.60;;;7.75;;
5912;SDS011;2982;42.684;23.356;2023-06-14T11:06:36;8.93;;;8.32;;
5912;SDS011;2982;42.684;23.356;2023-06-14T11:09:18;8.32;;;7.65;;
5912;SDS011;2982;42.684;23.356;2023-06-14T11:11:45;8.45;;;7.78;;
5912;SDS011;2982;42.684;23.356;2023-06-14T11:14:11;7.45;;;6.85;;
5912;SDS011;2982;42.684;23.356;2023-06-14T11:16:36;7.60;;;7.10;;
5912;SDS011;2982;42.684;23.356;2023-06-14T11:19:02;8.20;;;7.53;;
5912;SDS011;2982;42.684;23.356;2023-06-14T11:21:28;7.82;;;7.32;;
5912;SDS011;2982;42.684;23.356;2023-06-14T11:23:53;7.85;;;7.10;;
5912;SDS011;2982;42.684;23.356;2023-06-14T11:26:25;9.98;;;7.57;;
5912;SDS011;2982;42.684;23.356;2023-06-14T11:28:57;7.38;;;6.88;;
5912;SDS011;2982;42.684;23.356;2023-06-14T11:31:24;8.38;;;7.72;;
5912;SDS011;2982;42.684;23.356;2023-06-14T11:33:50;6.55;;;6.15;;
5912;SDS011;2982;42.684;23.356;2023-06-14T11:36:15;7.57;;;6.90;;
5912;SDS011;2982;42.684;23.356;2023-06-14T11:38:41;7.72;;;7.28;;
5912;SDS011;2982;42.684;23.356;2023-06-14T11:41:06;7.53;;;7.00;;
5912;SDS011;2982;42.684;23.356;2023-06-14T11:43:31;6.68;;;6.28;;
5912;SDS011;2982;42.684;23.356;2023-06-14T11:45:56;6.80;;;6.40;;
5912;SDS011;2982;42.684;23.356;2023-06-14T11:48:22;7.50;;;6.90;;
5912;SDS011;2982;42.684;23.356;2023-06-14T11:50:49;6.97;;;6.22;;
5912;SDS011;2982;42.684;23.356;2023-06-14T11:53:15;7.07;;;6.47;;
5912;SDS011;2982;42.684;23.356;2023-06-14T11:55:40;7.10;;;6.60;;
5912;SDS011;2982;42.684;23.356;2023-06-14T11:58:06;6.45;;;6.13;;
5912;SDS011;2982;42.684;23.356;2023-06-14T12:00:31;7.00;;;6.60;;
5912;SDS011;2982;42.684;23.356;2023-06-14T12:02:57;6.78;;;6.38;;
5912;SDS011;2982;42.684;23.356;2023-06-14T12:05:23;7.10;;;6.70;;
5912;SDS011;2982;42.684;23.356;2023-06-14T12:07:50;6.50;;;6.03;;
5912;SDS011;2982;42.684;23.356;2023-06-14T12:10:15;6.55;;;6.07;;
5912;SDS011;2982;42.684;23.356;2023-06-14T12:12:41;6.13;;;5.72;;
5912;SDS011;2982;42.684;23.356;2023-06-14T12:15:08;7.80;;;5.88;;
5912;SDS011;2982;42.684;23.356;2023-06-14T12:17:34;5.50;;;5.20;;
5912;SDS011;2982;42.684;23.356;2023-06-14T12:20:10;7.20;;;6.13;;
5912;SDS011;2982;42.684;23.356;2023-06-14T12:22:37;6.10;;;5.40;;
5912;SDS011;2982;42.684;23.356;2023-06-14T12:25:26;6.85;;;5.53;;
5912;SDS011;2982;42.684;23.356;2023-06-14T12:27:55;5.85;;;5.55;;
5912;SDS011;2982;42.684;23.356;2023-06-14T12:30:20;6.30;;;5.70;;
5912;SDS011;2982;42.684;23.356;2023-06-14T12:32:46;5.47;;;4.95;;
5912;SDS011;2982;42.684;23.356;2023-06-14T12:35:11;5.05;;;4.75;;
5912;SDS011;2982;42.684;23.356;2023-06-14T12:37:36;5.97;;;5.47;;
5912;SDS011;2982;42.684;23.356;2023-06-14T12:40:02;5.93;;;5.53;;
5912;SDS011;2982;42.684;23.356;2023-06-14T12:42:27;6.10;;;5.25;;
5912;SDS011;2982;42.684;23.356;2023-06-14T12:44:52;6.35;;;5.50;;
5912;SDS011;2982;42.684;23.356;2023-06-14T12:47:18;5.18;;;4.88;;
5912;SDS011;2982;42.684;23.356;2023-06-14T12:49:43;5.18;;;4.88;;
5912;SDS011;2982;42.684;23.356;2023-06-14T12:52:08;5.18;;;4.88;;
5912;SDS011;2982;42.684;23.356;2023-06-14T12:54:33;5.43;;;4.72;;
5912;SDS011;2982;42.684;23.356;2023-06-14T12:56:59;5.00;;;4.70;;
5912;SDS011;2982;42.684;23.356;2023-06-14T12:59:24;5.03;;;4.72;;
5912;SDS011;2982;42.684;23.356;2023-06-14T13:01:49;5.15;;;4.75;;
5912;SDS011;2982;42.684;23.356;2023-06-14T13:04:15;5.00;;;4.55;;
5912;SDS011;2982;42.684;23.356;2023-06-14T13:06:40;5.28;;;4.78;;
5912;SDS011;2982;42.684;23.356;2023-06-14T13:09:05;5.05;;;4.63;;
5912;SDS011;2982;42.684;23.356;2023-06-14T13:11:30;6.50;;;4.45;;
5912;SDS011;2982;42.684;23.356;2023-06-14T13:13:56;3.90;;;3.70;;
5912;SDS011;2982;42.684;23.356;2023-06-14T13:16:21;5.15;;;4.72;;
5912;SDS011;2982;42.684;23.356;2023-06-14T13:18:46;6.90;;;5.13;;
5912;SDS011;2982;42.684;23.356;2023-06-14T13:21:12;5.50;;;5.13;;
5912;SDS011;2982;42.684;23.356;2023-06-14T13:23:37;5.55;;;5.25;;
5912;SDS011;2982;42.684;23.356;2023-06-14T13:26:02;5.82;;;5.28;;
5912;SDS011;2982;42.684;23.356;2023-06-14T13:28:28;6.20;;;5.68;;
5912;SDS011;2982;42.684;23.356;2023-06-14T13:30:53;5.57;;;5.05;;
5912;SDS011;2982;42.684;23.356;2023-06-14T13:33:18;6.15;;;5.57;;
5912;SDS011;2982;42.684;23.356;2023-06-14T13:35:44;6.45;;;5.88;;
5912;SDS011;2982;42.684;23.356;2023-06-14T13:38:09;7.10;;;6.47;;
5912;SDS011;2982;42.684;23.356;2023-06-14T13:40:34;7.00;;;6.60;;
5912;SDS011;2982;42.684;23.356;2023-06-14T13:43:00;7.45;;;6.72;;
5912;SDS011;2982;42.684;23.356;2023-06-14T13:45:25;7.57;;;7.00;;
5912;SDS011;2982;42.684;23.356;2023-06-14T13:47:50;7.43;;;6.82;;
5912;SDS011;2982;42.684;23.356;2023-06-14T13:50:16;6.55;;;6.15;;
5912;SDS011;2982;42.684;23.356;2023-06-14T13:52:41;7.13;;;6.65;;
5912;SDS011;2982;42.684;23.356;2023-06-14T13:55:07;6.95;;;6.38;;
5912;SDS011;2982;42.684;23.356;2023-06-14T13:57:32;7.32;;;6.72;;
5912;SDS011;2982;42.684;23.356;2023-06-14T13:59:57;7.88;;;7.10;;
5912;SDS011;2982;42.684;23.356;2023-06-14T14:02:23;7.85;;;7.10;;
5912;SDS011;2982;42.684;23.356;2023-06-14T14:04:48;7.15;;;6.65;;
5912;SDS011;2982;42.684;23.356;2023-06-14T14:07:13;6.88;;;6.28;;
5912;SDS011;2982;42.684;23.356;2023-06-14T14:09:39;7.10;;;6.53;;
5912;SDS011;2982;42.684;23.356;2023-06-14T14:12:04;6.55;;;6.05;;
5912;SDS011;2982;42.684;23.356;2023-06-14T14:14:31;6.80;;;6.30;;
5912;SDS011;2982;42.684;23.356;2023-06-14T14:16:57;7.68;;;6.97;;
5912;SDS011;2982;42.684;23.356;2023-06-14T14:19:23;8.70;;;8.07;;
5912;SDS011;2982;42.684;23.356;2023-06-14T14:21:49;7.97;;;7.22;;
5912;SDS011;2982;42.684;23.356;2023-06-14T14:24:14;6.85;;;6.40;;
5912;SDS011;2982;42.684;23.356;2023-06-14T14:26:39;7.25;;;6.80;;
5912;SDS011;2982;42.684;23.356;2023-06-14T14:29:05;7.78;;;6.40;;
5912;SDS011;2982;42.684;23.356;2023-06-14T14:31:30;7.15;;;6.55;;
5912;SDS011;2982;42.684;23.356;2023-06-14T14:33:56;6.05;;;5.60;;
5912;SDS011;2982;42.684;23.356;2023-06-14T14:36:21;6.47;;;5.93;;
5912;SDS011;2982;42.684;23.356;2023-06-14T14:38:47;6.05;;;5.65;;
5912;SDS011;2982;42.684;23.356;2023-06-14T14:41:12;6.50;;;6.10;;
5912;SDS011;2982;42.684;23.356;2023-06-14T14:43:37;6.22;;;5.82;;
5912;SDS011;2982;42.684;23.356;2023-06-14T14:46:03;6.00;;;5.50;;
5912;SDS011;2982;42.684;23.356;2023-06-14T14:48:28;6.15;;;5.30;;
5912;SDS011;2982;42.684;23.356;2023-06-14T14:50:53;5.50;;;5.20;;
5912;SDS011;2982;42.684;23.356;2023-06-14T14:53:18;5.53;;;5.07;;
5912;SDS011;2982;42.684;23.356;2023-06-14T14:55:44;4.88;;;4.57;;